Arion — WDB9895 — position and weather

sailwx.info

Track history (hours):
 
Tides and Currents Weather Stations Pressure Air Temp Water Temp Dewpoint Dewpoint Depression Visibility Wind Speed Wind Dir Waves Ship Positions

Arion

Owner: bruno, ronald l, ny, NY. More information available from US FCC via Universal Licensing System and Coast Guard Vessel Documentation Center.

Last reported at 2015-Aug-14 14:32 UTC. Time now 2015-Aug-29 18:59 UTC.
Position N 40°51' W 073°39'.
Warning: this ship's position is 15 days out of date.

Length 15 m.

Type: Sailing vessel. MMSI: 366984640.

Date/timePositionNaut miles runAvg speedWind from/ knotsBaromVisibWave heightAir tempDewpointWater temp
2015-Aug-14 14:32N 40°51' W 073°39'8 6.2
2015-Aug-14 13:13N 40°57' W 073°31'5 7.8
2015-Aug-14 12:32N 40°58' W 073°24'8 7.8
2015-Aug-14 11:33N 40°59' W 073°14'6 6.4
2015-Aug-14 10:33N 40°58' W 073°06'0 0.0
2015-Aug-12 22:31N 40°58' W 073°06'5 5.1
2015-Aug-12 21:33N 40°60' W 072°60'7 7.1
2015-Aug-12 20:33N 41°00' W 072°50'7 6.5
2015-Aug-12 19:33N 41°01' W 072°42'6 5.8
2015-Aug-12 18:33N 41°01' W 072°34'6 5.7
2015-Aug-12 17:33N 41°06' W 072°30'5 4.6
2015-Aug-12 16:34N 41°09' W 072°25'4 3.8
2015-Aug-12 15:33N 41°10' W 072°20'5 4.8
2015-Aug-12 14:33N 41°11' W 072°14'5 5.4
2015-Aug-12 13:33N 41°06' W 072°18'2 2.4
2015-Aug-12 12:33N 41°07' W 072°22'0 0.0
2015-Aug-10 21:31N 41°07' W 072°22'0 0.0
2015-Aug-10 20:31N 41°07' W 072°22'0 0.0
2015-Aug-10 19:33N 41°07' W 072°22'3 2.6
2015-Aug-10 18:33N 41°06' W 072°18'7 6.5
2015-Aug-10 17:33N 41°09' W 072°10'6 6.2
2015-Aug-10 16:34N 41°10' W 072°02'5 5.3
2015-Aug-10 15:33N 41°11' W 071°55'6 5.6
2015-Aug-10 14:33N 41°11' W 071°48'6 6.4
2015-Aug-10 13:33N 41°12' W 071°39'3 3.3
2015-Aug-10 12:32N 41°12' W 071°35'  
2015-Aug-07 17:26N 41°12' W 071°35'0 0.0
2015-Aug-07 16:33N 41°12' W 071°35'4 4.4
2015-Aug-07 15:33N 41°16' W 071°33'6 6.4
2015-Aug-07 14:33N 41°18' W 071°25'7 7.0
2015-Aug-07 13:33N 41°20' W 071°16'7 7.1
2015-Aug-07 12:33N 41°23' W 071°07'7 7.5
2015-Aug-07 11:33N 41°26' W 070°58'2 2.2
2015-Aug-07 10:31N 41°26' W 070°55'11 0.3
2015-Aug-05 14:21N 41°31' W 070°42'0 0.0
2015-Aug-04 23:07N 41°31' W 070°42'0 0.0
2015-Aug-04 22:31N 41°31' W 070°42'0 0.0
2015-Aug-04 21:28N 41°31' W 070°42'0 0.0
2015-Aug-04 20:31N 41°31' W 070°42'0 0.0
2015-Aug-04 19:31N 41°31' W 070°42'  
Track history (hours):
 
Tides and Currents Weather Stations Pressure Air Temp Water Temp Dewpoint Dewpoint Depression Visibility Wind Speed Wind Dir Waves Ship Positions

Arion

Owner: bruno, ronald l, ny, NY. More information available from US FCC via Universal Licensing System and Coast Guard Vessel Documentation Center.

Last reported at 2015-Aug-14 14:32 UTC. Time now 2015-Aug-29 18:59 UTC.
Position N 40°51' W 073°39'.
Warning: this ship's position is 15 days out of date.

Length 15 m.

Type: Sailing vessel. MMSI: 366984640.

Date/timePositionNaut miles runAvg speedWind from/ knotsBaromVisibWave heightAir tempDewpointWater temp
2015-Aug-14 14:32N 40°51' W 073°39'8 6.2
2015-Aug-14 13:13N 40°57' W 073°31'5 7.8
2015-Aug-14 12:32N 40°58' W 073°24'8 7.8
2015-Aug-14 11:33N 40°59' W 073°14'6 6.4
2015-Aug-14 10:33N 40°58' W 073°06'0 0.0
2015-Aug-12 22:31N 40°58' W 073°06'5 5.1
2015-Aug-12 21:33N 40°60' W 072°60'7 7.1
2015-Aug-12 20:33N 41°00' W 072°50'7 6.5
2015-Aug-12 19:33N 41°01' W 072°42'6 5.8
2015-Aug-12 18:33N 41°01' W 072°34'6 5.7
2015-Aug-12 17:33N 41°06' W 072°30'5 4.6
2015-Aug-12 16:34N 41°09' W 072°25'4 3.8
2015-Aug-12 15:33N 41°10' W 072°20'5 4.8
2015-Aug-12 14:33N 41°11' W 072°14'5 5.4
2015-Aug-12 13:33N 41°06' W 072°18'2 2.4
2015-Aug-12 12:33N 41°07' W 072°22'0 0.0
2015-Aug-10 21:31N 41°07' W 072°22'0 0.0
2015-Aug-10 20:31N 41°07' W 072°22'0 0.0
2015-Aug-10 19:33N 41°07' W 072°22'3 2.6
2015-Aug-10 18:33N 41°06' W 072°18'7 6.5
2015-Aug-10 17:33N 41°09' W 072°10'6 6.2
2015-Aug-10 16:34N 41°10' W 072°02'5 5.3
2015-Aug-10 15:33N 41°11' W 071°55'6 5.6
2015-Aug-10 14:33N 41°11' W 071°48'6 6.4
2015-Aug-10 13:33N 41°12' W 071°39'3 3.3
2015-Aug-10 12:32N 41°12' W 071°35'  
2015-Aug-07 17:26N 41°12' W 071°35'0 0.0
2015-Aug-07 16:33N 41°12' W 071°35'4 4.4
2015-Aug-07 15:33N 41°16' W 071°33'6 6.4
2015-Aug-07 14:33N 41°18' W 071°25'7 7.0
2015-Aug-07 13:33N 41°20' W 071°16'7 7.1
2015-Aug-07 12:33N 41°23' W 071°07'7 7.5
2015-Aug-07 11:33N 41°26' W 070°58'2 2.2
2015-Aug-07 10:31N 41°26' W 070°55'11 0.3
2015-Aug-05 14:21N 41°31' W 070°42'0 0.0
2015-Aug-04 23:07N 41°31' W 070°42'0 0.0
2015-Aug-04 22:31N 41°31' W 070°42'0 0.0
2015-Aug-04 21:28N 41°31' W 070°42'0 0.0
2015-Aug-04 20:31N 41°31' W 070°42'0 0.0
2015-Aug-04 19:31N 41°31' W 070°42'  

Dump ship's entire track history